createdAt,value
2018-03-02T00:00:58.377Z,-1.15
2018-03-02T00:01:58.358Z,-1.13
2018-03-02T00:02:58.348Z,-1.21
2018-03-02T00:03:58.329Z,-1.21
2018-03-02T00:04:58.325Z,-1.21
2018-03-02T00:05:58.296Z,-1.17
2018-03-02T00:06:58.284Z,-1.17
2018-03-02T00:07:58.267Z,-1.21
2018-03-02T00:08:58.257Z,-1.25
2018-03-02T00:09:58.291Z,-1.23
2018-03-02T00:10:58.224Z,-1.21
2018-03-02T00:11:58.209Z,-1.21
2018-03-02T00:12:58.200Z,-1.20
2018-03-02T00:13:58.179Z,-1.20
2018-03-02T00:14:58.164Z,-1.18
2018-03-02T00:15:58.174Z,-1.17
2018-03-02T00:16:58.137Z,-1.18
2018-03-02T00:17:58.121Z,-1.25
2018-03-02T00:18:58.107Z,-1.15
2018-03-02T00:19:58.098Z,-1.21
2018-03-02T00:20:58.075Z,-1.21
2018-03-02T00:21:58.060Z,-1.21
2018-03-02T00:22:58.043Z,-1.18
2018-03-02T00:23:58.030Z,-1.23
2018-03-02T00:24:58.016Z,-1.27
2018-03-02T00:25:58.003Z,-1.27
2018-03-02T00:26:57.985Z,-1.25
2018-03-02T00:27:57.975Z,-1.27
2018-03-02T00:28:57.953Z,-1.24
2018-03-02T00:29:57.949Z,-1.27
2018-03-02T00:30:57.928Z,-1.25
2018-03-02T00:31:57.913Z,-1.27
2018-03-02T00:32:57.909Z,-1.33
2018-03-02T00:33:57.883Z,-1.30
2018-03-02T00:34:57.868Z,-1.21
2018-03-02T00:35:57.856Z,-1.41
2018-03-02T00:36:57.849Z,-1.24
2018-03-02T00:37:57.822Z,-1.25
2018-03-02T00:38:57.823Z,-1.24
2018-03-02T00:39:57.794Z,-1.33
2018-03-02T00:40:57.795Z,-1.36
2018-03-02T00:41:57.760Z,-1.25
2018-03-02T00:42:57.749Z,-1.27
2018-03-02T00:43:57.732Z,-1.31
2018-03-02T00:44:57.719Z,-1.30
2018-03-02T00:45:57.702Z,-1.42
2018-03-02T00:46:57.683Z,-1.38
2018-03-02T00:47:57.673Z,-1.38
2018-03-02T00:48:57.659Z,-1.45
2018-03-02T00:49:57.658Z,-1.38
2018-03-02T00:50:57.628Z,-1.39
2018-03-02T00:51:57.614Z,-1.38
2018-03-02T00:52:57.602Z,-1.45
2018-03-02T00:53:57.586Z,-1.42
2018-03-02T00:54:57.573Z,-1.36
2018-03-02T00:55:57.552Z,-1.45
2018-03-02T00:56:57.543Z,-1.35
2018-03-02T00:57:57.521Z,-1.39
2018-03-02T00:58:57.523Z,-1.49
2018-03-02T00:59:57.489Z,-1.35
2018-03-02T01:00:57.491Z,-1.43
2018-03-02T01:01:57.478Z,-1.45
2018-03-02T01:02:57.447Z,-1.43
2018-03-02T01:03:57.432Z,-1.43
2018-03-02T01:04:57.414Z,-1.35
2018-03-02T01:05:57.399Z,-1.38
2018-03-02T01:06:57.384Z,-1.35
2018-03-02T01:07:57.371Z,-1.39
2018-03-02T01:08:57.361Z,-1.49
2018-03-02T01:09:57.343Z,-1.38
2018-03-02T01:10:57.326Z,-1.39
2018-03-02T01:11:57.314Z,-1.45
2018-03-02T01:12:57.295Z,-1.36
2018-03-02T01:13:57.288Z,-1.43
2018-03-02T01:14:57.264Z,-1.38
2018-03-02T01:15:57.254Z,-1.41
2018-03-02T01:16:57.239Z,-1.43
2018-03-02T01:17:57.223Z,-1.45
2018-03-02T01:18:57.205Z,-1.45
2018-03-02T01:19:57.191Z,-1.41
2018-03-02T01:20:57.176Z,-1.41
2018-03-02T01:21:57.161Z,-1.45
2018-03-02T01:22:57.155Z,-1.46
2018-03-02T01:23:57.132Z,-1.43
2018-03-02T01:24:57.116Z,-1.41
2018-03-02T01:25:57.105Z,-1.51
2018-03-02T01:26:57.094Z,-1.53
2018-03-02T01:27:57.073Z,-1.51
2018-03-02T01:28:57.061Z,-1.45
2018-03-02T01:29:57.064Z,-1.48
2018-03-02T01:30:57.033Z,-1.48
2018-03-02T01:31:57.015Z,-1.62
2018-03-02T01:32:56.998Z,-1.51
2018-03-02T01:33:57.017Z,-1.63
2018-03-02T01:34:56.971Z,-1.60
2018-03-02T01:35:56.955Z,-1.59
2018-03-02T01:36:56.945Z,-1.56
2018-03-02T01:37:56.956Z,-1.60
2018-03-02T01:38:56.910Z,-1.66
2018-03-02T01:39:56.895Z,-1.54
2018-03-02T01:40:56.877Z,-1.67
2018-03-02T01:41:56.862Z,-1.66
2018-03-02T01:42:56.854Z,-1.56
2018-03-02T01:43:56.833Z,-1.69
2018-03-02T01:44:56.820Z,-1.59
2018-03-02T01:45:56.802Z,-1.67
2018-03-02T01:46:56.796Z,-1.64
2018-03-02T01:47:56.773Z,-1.64
2018-03-02T01:48:56.752Z,-1.59
2018-03-02T01:49:56.736Z,-1.69
2018-03-02T01:52:17.799Z,-1.63
2018-03-02T01:53:17.769Z,-1.72
2018-03-02T01:54:17.730Z,-1.62
2018-03-02T01:55:17.699Z,-1.56
2018-03-02T01:56:17.680Z,-1.56
2018-03-02T01:57:17.670Z,-1.67
2018-03-02T01:58:17.658Z,-1.69
2018-03-02T01:59:17.632Z,-1.69
2018-03-02T02:00:17.620Z,-1.70
2018-03-02T02:01:17.604Z,-1.63
2018-03-02T02:02:17.586Z,-1.64
2018-03-02T02:03:17.572Z,-1.67
2018-03-02T02:04:17.556Z,-1.63
2018-03-02T02:05:17.541Z,-1.67
2018-03-02T02:06:17.526Z,-1.69
2018-03-02T02:07:17.520Z,-1.69
2018-03-02T02:08:17.500Z,-1.74
2018-03-02T02:09:17.483Z,-1.74
2018-03-02T02:10:17.465Z,-1.77
2018-03-02T02:11:17.456Z,-1.77
2018-03-02T02:12:17.448Z,-1.72
2018-03-02T02:13:17.419Z,-1.67
2018-03-02T02:14:17.414Z,-1.78
2018-03-02T02:15:17.394Z,-1.67
2018-03-02T02:16:17.376Z,-1.81
2018-03-02T02:17:17.357Z,-1.81
2018-03-02T02:18:17.346Z,-1.72
2018-03-02T02:19:17.329Z,-1.77
2018-03-02T02:20:17.317Z,-1.80
2018-03-02T02:21:17.303Z,-1.82
2018-03-02T02:22:17.285Z,-1.85
2018-03-02T02:23:17.269Z,-1.90
2018-03-02T02:24:17.253Z,-1.95
2018-03-02T02:25:17.243Z,-1.95
2018-03-02T02:26:17.225Z,-1.98
2018-03-02T02:27:17.216Z,-2.00
2018-03-02T02:28:17.190Z,-2.00
2018-03-02T02:29:17.176Z,-2.08
2018-03-02T02:30:17.166Z,-2.14
2018-03-02T02:31:17.159Z,-2.10
2018-03-02T02:32:17.139Z,-2.11
2018-03-02T02:33:17.115Z,-2.06
2018-03-02T02:34:17.101Z,-2.18
2018-03-02T02:35:17.089Z,-2.13
2018-03-02T02:36:17.073Z,-2.16
2018-03-02T02:37:17.064Z,-2.36
2018-03-02T02:38:17.040Z,-2.17
2018-03-02T02:39:17.026Z,-2.21
2018-03-02T02:40:17.039Z,-2.35
2018-03-02T02:41:16.994Z,-2.32
2018-03-02T02:42:16.978Z,-2.38
2018-03-02T02:43:16.961Z,-2.32
2018-03-02T02:44:16.948Z,-2.29
2018-03-02T02:45:16.941Z,-2.40
2018-03-02T02:46:16.922Z,-2.33
2018-03-02T02:47:16.901Z,-2.45
2018-03-02T02:48:16.887Z,-2.47
2018-03-02T02:49:16.869Z,-2.42
2018-03-02T02:50:16.856Z,-2.40
2018-03-02T02:51:16.838Z,-2.56
2018-03-02T02:52:16.817Z,-2.50
2018-03-02T02:53:16.807Z,-2.42
2018-03-02T02:54:16.790Z,-2.47
2018-03-02T02:55:16.781Z,-2.56
2018-03-02T02:56:16.758Z,-2.60
2018-03-02T02:57:16.739Z,-2.51
2018-03-02T02:58:16.723Z,-2.53
2018-03-02T02:59:16.716Z,-2.56
2018-03-02T03:00:16.694Z,-2.63
2018-03-02T03:01:16.679Z,-2.58
2018-03-02T03:02:16.666Z,-2.58
2018-03-02T03:03:16.651Z,-2.56
2018-03-02T03:04:16.632Z,-2.63
2018-03-02T03:05:16.615Z,-2.45
2018-03-02T03:06:16.600Z,-2.40
2018-03-02T03:07:16.584Z,-2.63
2018-03-02T03:08:16.566Z,-2.64
2018-03-02T03:09:16.551Z,-2.64
2018-03-02T03:10:16.536Z,-2.72
2018-03-02T03:27:56.518Z,-2.85
2018-03-02T03:28:56.484Z,-2.86
2018-03-02T03:29:56.465Z,-2.94
2018-03-02T03:30:56.437Z,-2.90
2018-03-02T03:31:56.420Z,-2.87
2018-03-02T03:32:56.398Z,-2.94
2018-03-02T03:33:56.380Z,-3.05
2018-03-02T03:34:56.369Z,-2.89
2018-03-02T03:35:56.344Z,-2.89
2018-03-02T03:36:56.324Z,-2.97
2018-03-02T03:37:56.309Z,-2.94
2018-03-02T03:38:56.290Z,-2.97
2018-03-02T03:39:56.273Z,-2.99
2018-03-02T03:40:56.306Z,-2.99
2018-03-02T03:41:56.240Z,-3.14
2018-03-02T03:42:56.227Z,-3.00
2018-03-02T03:43:56.207Z,-3.02
2018-03-02T03:44:56.190Z,-2.97
2018-03-02T03:45:56.173Z,-3.07
2018-03-02T03:46:56.160Z,-3.08
2018-03-02T03:47:56.138Z,-3.00
2018-03-02T03:48:56.122Z,-2.99
2018-03-02T03:49:56.107Z,-3.08
2018-03-02T03:50:56.089Z,-3.15
2018-03-02T03:51:56.081Z,-3.13
2018-03-02T03:52:56.079Z,-3.15
2018-03-02T03:53:56.039Z,-3.05
2018-03-02T03:54:56.025Z,-3.07
2018-03-02T03:55:56.007Z,-3.11
2018-03-02T03:56:55.991Z,-3.08
2018-03-02T03:57:55.983Z,-3.07
2018-03-02T03:58:55.960Z,-3.08
2018-03-02T03:59:55.945Z,-3.11
2018-03-02T04:00:55.930Z,-3.00
2018-03-02T04:01:55.912Z,-2.97
2018-03-02T04:02:55.896Z,-3.13
2018-03-02T04:03:55.888Z,-3.23
2018-03-02T04:04:55.862Z,-3.25
2018-03-02T04:05:55.847Z,-3.15
2018-03-02T04:06:55.828Z,-3.31
2018-03-02T04:07:55.810Z,-3.23
2018-03-02T04:08:55.798Z,-3.20
2018-03-02T04:09:55.782Z,-3.20
2018-03-02T04:10:55.762Z,-3.15
2018-03-02T04:11:55.747Z,-3.20
2018-03-02T04:12:55.732Z,-3.31
2018-03-02T04:13:55.714Z,-3.17
2018-03-02T04:14:55.697Z,-3.26
2018-03-02T04:15:55.680Z,-3.20
2018-03-02T04:16:55.665Z,-3.22
2018-03-02T04:17:55.646Z,-3.25
2018-03-02T04:18:55.630Z,-3.17
2018-03-02T04:19:55.615Z,-3.38
2018-03-02T04:20:55.596Z,-3.38
2018-03-02T04:21:55.585Z,-3.20
2018-03-02T04:22:55.563Z,-3.31
2018-03-02T04:23:55.547Z,-3.38
2018-03-02T04:24:55.530Z,-3.38
2018-03-02T04:25:55.512Z,-3.32
2018-03-02T04:26:55.526Z,-3.31
2018-03-02T04:27:55.488Z,-3.22
2018-03-02T04:28:55.465Z,-3.38
2018-03-02T04:29:55.447Z,-3.23
2018-03-02T04:30:55.433Z,-3.20
2018-03-02T04:31:55.413Z,-3.25
2018-03-02T04:32:55.397Z,-3.26
2018-03-02T04:33:55.382Z,-3.28
2018-03-02T04:34:55.365Z,-3.22
2018-03-02T04:35:55.347Z,-3.17
2018-03-02T04:36:55.336Z,-3.22
2018-03-02T04:37:55.315Z,-3.29
2018-03-02T04:38:55.297Z,-3.38
2018-03-02T04:39:55.289Z,-3.32
2018-03-02T04:40:55.267Z,-3.35
2018-03-02T04:41:55.250Z,-3.39
2018-03-02T04:42:55.233Z,-3.43
2018-03-02T04:43:55.214Z,-3.49
2018-03-02T04:44:55.197Z,-3.35
2018-03-02T04:45:55.181Z,-3.47
2018-03-02T04:46:55.182Z,-3.43
2018-03-02T04:47:55.149Z,-3.43
2018-03-02T04:48:55.129Z,-3.44
2018-03-02T04:49:55.119Z,-3.46
2018-03-02T04:50:55.095Z,-3.47
2018-03-02T04:51:55.078Z,-3.44
2018-03-02T04:52:55.086Z,-3.46
2018-03-02T04:53:55.058Z,-3.44
2018-03-02T04:54:55.030Z,-3.46
2018-03-02T04:55:55.016Z,-3.47
2018-03-02T04:56:54.998Z,-3.41
2018-03-02T04:57:54.982Z,-3.39
2018-03-02T04:58:54.963Z,-3.53
2018-03-02T04:59:54.946Z,-3.44
2018-03-02T05:00:54.930Z,-3.39
2018-03-02T05:01:54.912Z,-3.47
2018-03-02T05:02:54.896Z,-3.36
2018-03-02T05:03:54.878Z,-3.44
2018-03-02T05:04:54.862Z,-3.47
2018-03-02T05:05:54.845Z,-3.54
2018-03-02T05:06:54.829Z,-3.53
2018-03-02T05:07:54.813Z,-3.54
2018-03-02T05:08:54.799Z,-3.51
2018-03-02T05:09:54.777Z,-3.57
2018-03-02T05:10:54.762Z,-3.56
2018-03-02T05:11:54.743Z,-3.53
2018-03-02T05:12:54.731Z,-3.49
2018-03-02T05:13:54.714Z,-3.51
2018-03-02T05:14:54.697Z,-3.57
2018-03-02T05:15:54.702Z,-3.61
2018-03-02T05:16:54.657Z,-3.50
2018-03-02T05:17:54.644Z,-3.53
2018-03-02T05:18:54.625Z,-3.67
2018-03-02T05:19:54.615Z,-3.65
2018-03-02T05:20:54.594Z,-3.62
2018-03-02T05:21:54.575Z,-3.56
2018-03-02T05:22:54.559Z,-3.50
2018-03-02T05:23:54.540Z,-3.53
2018-03-02T05:24:54.523Z,-3.56
2018-03-02T05:25:54.510Z,-3.49
2018-03-02T05:26:54.493Z,-3.51
2018-03-02T05:27:54.474Z,-3.51
2018-03-02T05:28:54.467Z,-3.56
2018-03-02T05:29:54.440Z,-3.51
2018-03-02T05:30:54.424Z,-3.61
2018-03-02T05:31:54.408Z,-3.67
2018-03-02T05:32:54.390Z,-3.62
2018-03-02T05:33:54.377Z,-3.65
2018-03-02T05:34:54.364Z,-3.57
2018-03-02T05:35:54.355Z,-3.50
2018-03-02T05:36:54.326Z,-3.67
2018-03-02T05:37:54.316Z,-3.67
2018-03-02T05:38:54.288Z,-3.71
2018-03-02T05:39:54.277Z,-3.67
2018-03-02T05:40:54.255Z,-3.65
2018-03-02T05:41:54.243Z,-3.62
2018-03-02T05:42:54.228Z,-3.65
2018-03-02T05:43:54.209Z,-3.65
2018-03-02T05:44:54.189Z,-3.65
2018-03-02T05:45:54.178Z,-3.64
2018-03-02T05:46:54.161Z,-3.65
2018-03-02T05:47:54.135Z,-3.70
2018-03-02T05:48:54.118Z,-3.62
2018-03-02T05:49:54.106Z,-3.62
2018-03-02T05:50:54.090Z,-3.71
2018-03-02T05:51:54.076Z,-3.71
2018-03-02T05:52:54.059Z,-3.71
2018-03-02T05:53:54.040Z,-3.65
2018-03-02T05:54:54.021Z,-3.75
2018-03-02T05:55:54.004Z,-3.71
2018-03-02T05:56:53.982Z,-3.70
2018-03-02T05:57:53.972Z,-3.75
2018-03-02T05:58:53.950Z,-3.80
2018-03-02T05:59:53.934Z,-3.78
2018-03-02T06:00:53.919Z,-3.64
2018-03-02T06:01:53.900Z,-3.87
2018-03-02T06:02:53.882Z,-3.83
2018-03-02T06:03:53.874Z,-3.75
2018-03-02T06:04:53.849Z,-3.68
2018-03-02T06:05:53.834Z,-3.86
2018-03-02T06:06:53.813Z,-3.76
2018-03-02T06:07:53.800Z,-3.78
2018-03-02T06:08:53.785Z,-3.84
2018-03-02T06:09:53.769Z,-3.89
2018-03-02T06:10:53.750Z,-3.70
2018-03-02T06:11:53.730Z,-3.84
2018-03-02T06:12:53.713Z,-3.84
2018-03-02T06:13:53.696Z,-3.81
2018-03-02T06:14:53.681Z,-3.89
2018-03-02T06:15:53.662Z,-3.86
2018-03-02T06:16:53.677Z,-3.78
2018-03-02T06:17:53.627Z,-3.81
2018-03-02T06:18:53.614Z,-3.84
2018-03-02T06:19:53.605Z,-3.75
2018-03-02T06:20:53.575Z,-3.86
2018-03-02T06:21:53.575Z,-3.84
2018-03-02T06:22:53.547Z,-3.78
2018-03-02T06:23:53.527Z,-3.81
2018-03-02T06:24:53.507Z,-3.81
2018-03-02T06:25:53.495Z,-3.78
2018-03-02T06:26:53.482Z,-3.75
2018-03-02T06:27:53.459Z,-3.76
2018-03-02T06:28:53.439Z,-3.76
2018-03-02T06:29:53.422Z,-3.78
2018-03-02T06:30:53.410Z,-3.80
2018-03-02T06:31:53.390Z,-3.86
2018-03-02T06:32:53.372Z,-3.87
2018-03-02T06:33:53.356Z,-3.72
2018-03-02T06:34:53.365Z,-3.78
2018-03-02T06:35:53.329Z,-3.87
2018-03-02T06:36:53.304Z,-3.81
2018-03-02T06:37:53.291Z,-3.80
2018-03-02T06:38:53.272Z,-3.87
2018-03-02T06:39:53.258Z,-3.84
2018-03-02T06:40:53.235Z,-3.76
2018-03-02T06:42:01.968Z,-3.81
2018-03-02T06:43:46.607Z,-3.78
2018-03-02T06:44:46.575Z,-3.70
2018-03-02T06:45:46.557Z,-3.72
2018-03-02T06:46:46.541Z,-3.72
2018-03-02T06:47:46.546Z,-3.76
2018-03-02T06:48:46.508Z,-3.78
2018-03-02T06:49:46.498Z,-3.84
2018-03-02T06:50:46.471Z,-3.83
2018-03-02T06:51:46.455Z,-3.83
2018-03-02T06:52:46.438Z,-3.75
2018-03-02T06:53:46.420Z,-3.78
2018-03-02T06:54:46.403Z,-3.76
2018-03-02T06:55:46.403Z,-3.83
2018-03-02T06:56:46.369Z,-3.68
2018-03-02T06:57:46.352Z,-3.76
2018-03-02T06:58:46.351Z,-3.71
2018-03-02T06:59:46.335Z,-3.67
2018-03-02T07:00:46.310Z,-3.75
2018-03-02T07:01:46.293Z,-3.81
2018-03-02T07:02:46.331Z,-3.78
2018-03-02T07:03:46.252Z,-3.75
2018-03-02T07:04:46.236Z,-3.65
2018-03-02T07:05:46.218Z,-3.76
2018-03-02T07:06:46.201Z,-3.75
2018-03-02T07:07:46.181Z,-3.70
2018-03-02T07:08:46.164Z,-3.72
2018-03-02T07:09:46.182Z,-3.65
2018-03-02T07:10:46.130Z,-3.62
2018-03-02T07:11:46.116Z,-3.67
2018-03-02T07:12:46.095Z,-3.71
2018-03-02T07:13:46.083Z,-3.62
2018-03-02T07:14:46.065Z,-3.70
2018-03-02T07:15:46.050Z,-3.68
2018-03-02T07:16:46.034Z,-3.70
2018-03-02T07:17:46.014Z,-3.70
2018-03-02T07:18:46.000Z,-3.70
2018-03-02T07:19:45.983Z,-3.65
2018-03-02T07:20:45.983Z,-3.61
2018-03-02T07:21:45.963Z,-3.76
2018-03-02T07:22:45.928Z,-3.61
2018-03-02T07:23:45.923Z,-3.54
2018-03-02T07:24:45.903Z,-3.65
2018-03-02T07:25:45.884Z,-3.67
2018-03-02T07:26:45.868Z,-3.57
2018-03-02T07:27:45.843Z,-3.70
2018-03-02T07:28:45.829Z,-3.61
2018-03-02T07:29:45.808Z,-3.51
2018-03-02T07:30:45.794Z,-3.72
2018-03-02T07:31:45.775Z,-3.76
2018-03-02T07:32:45.766Z,-3.76
2018-03-02T07:33:45.746Z,-3.65
2018-03-02T07:34:45.725Z,-3.62
2018-03-02T07:35:45.710Z,-3.65
2018-03-02T07:36:45.700Z,-3.67
2018-03-02T07:37:45.685Z,-3.68
2018-03-02T07:38:45.663Z,-3.62
2018-03-02T07:39:45.637Z,-3.61
2018-03-02T07:40:45.623Z,-3.70
2018-03-02T07:41:45.617Z,-3.65
2018-03-02T07:42:45.592Z,-3.57
2018-03-02T07:43:45.571Z,-3.62
2018-03-02T07:44:45.557Z,-3.67
2018-03-02T07:45:45.536Z,-3.72
2018-03-02T07:46:45.529Z,-3.71
2018-03-02T07:47:45.504Z,-3.68
2018-03-02T07:48:45.492Z,-3.57
2018-03-02T07:49:45.471Z,-3.67
2018-03-02T07:50:45.462Z,-3.65
2018-03-02T07:51:45.435Z,-3.65
2018-03-02T07:52:45.416Z,-3.57
2018-03-02T07:53:45.402Z,-3.65
2018-03-02T07:54:45.388Z,-3.54
2018-03-02T07:55:45.370Z,-3.53
2018-03-02T07:56:45.356Z,-3.67
2018-03-02T07:57:45.357Z,-3.51
2018-03-02T07:58:45.321Z,-3.54
2018-03-02T07:59:45.300Z,-3.68
2018-03-02T08:00:45.284Z,-3.53
2018-03-02T08:01:45.268Z,-3.41
2018-03-02T08:02:45.254Z,-3.50
2018-03-02T08:03:45.234Z,-3.56
2018-03-02T08:04:45.224Z,-3.44
2018-03-02T08:05:45.204Z,-3.44
2018-03-02T08:06:45.185Z,-3.64
2018-03-02T08:07:45.168Z,-3.54
2018-03-02T08:08:45.148Z,-3.68
2018-03-02T08:09:45.153Z,-3.56
2018-03-02T08:10:45.136Z,-3.51
2018-03-02T08:11:45.098Z,-3.61
2018-03-02T08:12:45.082Z,-3.49
2018-03-02T08:13:45.064Z,-3.51
2018-03-02T08:14:45.054Z,-3.56
2018-03-02T08:15:45.030Z,-3.39
2018-03-02T08:16:45.019Z,-3.36
2018-03-02T08:17:44.995Z,-3.47
2018-03-02T08:18:44.990Z,-3.56
2018-03-02T08:19:44.968Z,-3.41
2018-03-02T08:20:44.959Z,-3.53
2018-03-02T08:21:44.931Z,-3.61
2018-03-02T08:22:44.912Z,-3.46
2018-03-02T08:23:44.917Z,-3.43
2018-03-02T08:24:44.878Z,-3.44
2018-03-02T08:25:44.860Z,-3.22
2018-03-02T08:26:44.847Z,-3.36
2018-03-02T08:27:44.832Z,-3.32
2018-03-02T08:28:44.825Z,-3.17
2018-03-02T08:29:44.798Z,-3.36
2018-03-02T08:30:44.776Z,-3.35
2018-03-02T08:31:44.776Z,-3.29
2018-03-02T08:32:44.770Z,-3.38
2018-03-02T08:33:44.783Z,-3.31
2018-03-02T08:34:44.719Z,-3.20
2018-03-02T08:35:44.710Z,-3.18
2018-03-02T08:36:44.692Z,-3.14
2018-03-02T08:37:44.690Z,-3.22
2018-03-02T08:38:44.648Z,-3.11
2018-03-02T08:39:44.633Z,-3.20
2018-03-02T08:40:44.614Z,-2.94
2018-03-02T08:41:44.620Z,-3.05
2018-03-02T08:42:44.606Z,-3.13
2018-03-02T08:43:44.603Z,-3.11
2018-03-02T08:44:44.553Z,-3.02
2018-03-02T08:45:44.558Z,-3.10
2018-03-02T08:46:44.518Z,-3.13
2018-03-02T08:47:44.521Z,-3.20
2018-03-02T08:48:44.488Z,-3.08
2018-03-02T08:49:44.469Z,-3.23
2018-03-02T08:50:44.490Z,-3.10
2018-03-02T08:51:44.433Z,-3.08
2018-03-02T08:52:44.416Z,-3.22
2018-03-02T08:53:44.400Z,-3.02
2018-03-02T08:54:44.383Z,-3.25
2018-03-02T08:55:44.383Z,-2.99
2018-03-02T08:56:44.356Z,-3.04
2018-03-02T08:57:44.333Z,-3.07
2018-03-02T08:58:44.337Z,-2.99
2018-03-02T08:59:44.310Z,-3.02
2018-03-02T09:00:44.367Z,-3.04
2018-03-02T09:01:44.338Z,-2.97
2018-03-02T09:02:44.252Z,-2.93
2018-03-02T09:03:44.237Z,-2.81
2018-03-02T09:04:44.232Z,-2.90
2018-03-02T09:05:44.199Z,-2.89
2018-03-02T09:06:44.213Z,-2.87
2018-03-02T09:07:44.201Z,-2.92
2018-03-02T09:08:44.165Z,-3.02
2018-03-02T09:09:44.133Z,-2.94
2018-03-02T09:10:44.128Z,-2.99
2018-03-02T09:11:44.108Z,-2.76
2018-03-02T09:12:44.089Z,-2.74
2018-03-02T09:13:44.088Z,-2.71
2018-03-02T09:14:44.056Z,-2.89
2018-03-02T09:15:44.043Z,-2.75
2018-03-02T09:16:44.035Z,-2.94
2018-03-02T09:17:44.037Z,-2.87
2018-03-02T09:18:43.988Z,-2.76
2018-03-02T09:19:43.978Z,-2.53
2018-03-02T09:20:43.967Z,-2.81
2018-03-02T09:21:43.983Z,-2.63
2018-03-02T09:22:43.956Z,-2.57
2018-03-02T09:23:43.926Z,-2.47
2018-03-02T09:24:43.892Z,-2.56
2018-03-02T09:25:43.899Z,-2.48
2018-03-02T09:26:43.887Z,-2.51
2018-03-02T09:27:43.851Z,-2.61
2018-03-02T09:28:43.839Z,-2.54
2018-03-02T09:29:43.832Z,-2.40
2018-03-02T09:30:43.801Z,-2.48
2018-03-02T09:31:43.783Z,-2.45
2018-03-02T09:32:43.770Z,-2.28
2018-03-02T09:33:43.759Z,-2.16
2018-03-02T09:34:43.738Z,-2.42
2018-03-02T09:35:43.725Z,-2.42
2018-03-02T09:36:43.705Z,-2.32
2018-03-02T09:37:43.684Z,-2.16
2018-03-02T09:38:43.671Z,-2.26
2018-03-02T09:39:43.658Z,-2.11
2018-03-02T09:40:43.640Z,-2.45
2018-03-02T09:41:43.626Z,-2.40
2018-03-02T09:42:43.658Z,-2.45
2018-03-02T09:43:43.596Z,-2.29
2018-03-02T09:44:53.326Z,-2.39
2018-03-02T09:46:36.992Z,-2.32
2018-03-02T09:47:36.964Z,-2.29
2018-03-02T09:48:36.930Z,-2.60
2018-03-02T09:49:36.993Z,-2.54
2018-03-02T09:50:36.906Z,-2.48
2018-03-02T09:51:36.884Z,-2.35
2018-03-02T09:52:36.883Z,-2.45
2018-03-02T09:53:36.851Z,-2.50
2018-03-02T09:54:36.840Z,-2.39
2018-03-02T09:55:36.844Z,-2.39
2018-03-02T09:56:36.818Z,-2.17
2018-03-02T09:57:36.791Z,-2.16
2018-03-02T09:58:36.772Z,-1.92
2018-03-02T09:59:36.758Z,-1.96
2018-03-02T10:00:36.749Z,-1.96
2018-03-02T10:01:36.732Z,-2.43
2018-03-02T10:02:36.710Z,-2.23
2018-03-02T10:03:36.697Z,-2.18
2018-03-02T10:04:36.688Z,-2.06
2018-03-02T10:05:36.682Z,-1.87
2018-03-02T10:06:36.663Z,-1.81
2018-03-02T10:07:36.675Z,-1.99
2018-03-02T10:08:36.623Z,-2.20
2018-03-02T10:09:36.640Z,-2.02
2018-03-02T10:10:36.616Z,-1.93
2018-03-02T10:11:36.576Z,-1.69
2018-03-02T10:12:36.569Z,-2.03
2018-03-02T10:13:36.555Z,-1.82
2018-03-02T10:14:36.547Z,-1.54
2018-03-02T10:15:36.518Z,-1.51
2018-03-02T10:16:36.512Z,-1.80
2018-03-02T10:17:36.564Z,-1.63
2018-03-02T10:18:36.501Z,-1.72
2018-03-02T10:19:45.182Z,-1.45
2018-03-02T10:21:29.911Z,-1.41
2018-03-02T10:22:29.964Z,-1.31
2018-03-02T10:23:29.849Z,-1.57
2018-03-02T10:24:29.943Z,-1.56
2018-03-02T10:25:29.768Z,-1.25
2018-03-02T10:26:29.762Z,-1.48
2018-03-02T10:27:29.741Z,-1.81
2018-03-02T10:28:29.721Z,-1.59
2018-03-02T10:29:29.712Z,-1.45
2018-03-02T10:30:29.695Z,-1.13
2018-03-02T10:31:29.708Z,-0.84
2018-03-02T10:32:29.695Z,-1.17
2018-03-02T10:33:29.829Z,-1.00
2018-03-02T10:34:29.648Z,-1.43
2018-03-02T10:35:29.634Z,-1.51
2018-03-02T10:36:29.611Z,-1.42
2018-03-02T10:37:29.614Z,-1.43
2018-03-02T10:38:29.576Z,-1.25
2018-03-02T10:39:29.574Z,-1.18
2018-03-02T10:40:29.548Z,-1.13
2018-03-02T10:41:29.594Z,-0.87
2018-03-02T10:42:29.520Z,-1.36
2018-03-02T10:43:29.503Z,-1.15
2018-03-02T10:44:29.507Z,-1.09
2018-03-02T10:45:29.504Z,-1.45
2018-03-02T10:46:29.460Z,-0.99
2018-03-02T10:47:29.444Z,-1.12
2018-03-02T10:48:29.432Z,-1.03
2018-03-02T10:49:29.416Z,-1.31
2018-03-02T10:50:29.404Z,-0.86
2018-03-02T10:51:29.401Z,-0.86
2018-03-02T10:52:29.371Z,-0.84
2018-03-02T10:53:29.354Z,-1.03
2018-03-02T10:54:29.342Z,-1.05
2018-03-02T10:55:29.348Z,-0.81
2018-03-02T10:56:29.337Z,-0.80
2018-03-02T10:57:29.301Z,-1.00
2018-03-02T10:58:29.288Z,-1.21
2018-03-02T10:59:29.270Z,-0.95
2018-03-02T11:00:29.267Z,-0.97
2018-03-02T11:01:29.251Z,-1.15
2018-03-02T11:02:29.241Z,-1.09
2018-03-02T11:03:29.213Z,-1.10
2018-03-02T11:04:29.201Z,-0.86
2018-03-02T11:05:29.191Z,-0.78
2018-03-02T11:06:29.205Z,-1.09
2018-03-02T11:07:29.173Z,-0.70
2018-03-02T11:08:29.143Z,-0.94
2018-03-02T11:09:29.164Z,-0.59
2018-03-02T11:10:29.139Z,-0.81
2018-03-02T11:11:29.133Z,-0.89
2018-03-02T11:12:29.093Z,-0.60
2018-03-02T11:13:29.082Z,-0.48
2018-03-02T11:14:29.072Z,-0.39
2018-03-02T11:15:29.058Z,-0.05
2018-03-02T11:16:29.052Z,-0.23
2018-03-02T11:17:29.015Z,-0.15
2018-03-02T11:18:29.003Z,-0.04
2018-03-02T11:19:28.991Z,0.06
2018-03-02T11:20:28.985Z,-0.05
2018-03-02T11:21:28.962Z,-0.54
2018-03-02T11:22:28.993Z,-0.70
2018-03-02T11:23:28.983Z,-0.36
2018-03-02T11:26:01.064Z,-0.63
2018-03-02T11:27:00.998Z,-0.66
2018-03-02T11:28:01.018Z,-0.80
2018-03-02T11:29:00.976Z,-0.65
2018-03-02T11:30:00.983Z,-0.41
2018-03-02T11:31:00.952Z,-0.41
2018-03-02T11:32:00.954Z,-0.39
2018-03-02T11:33:00.923Z,-0.24
2018-03-02T11:34:00.907Z,-0.18
2018-03-02T11:35:00.886Z,-0.24
2018-03-02T11:36:00.885Z,0.02
2018-03-02T11:37:00.865Z,0.02
2018-03-02T11:38:00.857Z,-0.18
2018-03-02T11:39:00.838Z,-0.59
2018-03-02T11:40:00.834Z,-0.41
2018-03-02T11:41:00.811Z,-0.13
2018-03-02T11:42:00.805Z,-0.54
2018-03-02T11:43:00.790Z,-0.37
2018-03-02T11:44:00.773Z,-0.22
2018-03-02T11:45:00.761Z,0.15
2018-03-02T11:46:00.745Z,0.03
2018-03-02T11:47:00.730Z,0.00
2018-03-02T11:48:00.716Z,-0.08
2018-03-02T11:49:00.707Z,0.05
2018-03-02T11:50:00.690Z,-0.23
2018-03-02T11:51:00.680Z,-0.12
2018-03-02T11:52:00.665Z,0.10
2018-03-02T11:53:00.650Z,0.05
2018-03-02T11:54:00.657Z,-0.06
2018-03-02T11:55:00.624Z,0.03
2018-03-02T11:56:00.611Z,0.12
2018-03-02T11:57:00.595Z,0.00
2018-03-02T11:58:00.589Z,-0.23
2018-03-02T11:59:00.576Z,-0.11
2018-03-02T12:00:00.584Z,-0.15
2018-03-02T12:01:00.548Z,0.03
2018-03-02T12:02:00.537Z,0.00
2018-03-02T12:03:00.523Z,-0.31
2018-03-02T12:04:00.507Z,-0.09
2018-03-02T12:05:00.498Z,0.07
2018-03-02T12:06:00.484Z,-0.22
2018-03-02T12:07:00.483Z,0.03
2018-03-02T12:08:00.454Z,0.15
2018-03-02T12:09:00.451Z,-0.19
2018-03-02T12:10:00.429Z,0.06
2018-03-02T12:11:00.416Z,0.12
2018-03-02T12:12:00.404Z,0.10
2018-03-02T12:13:00.394Z,0.00
2018-03-02T12:14:00.390Z,-0.04
2018-03-02T12:15:00.366Z,0.07
2018-03-02T12:16:00.354Z,0.23
2018-03-02T12:17:00.344Z,0.24
2018-03-02T12:18:00.325Z,0.21
2018-03-02T12:19:00.314Z,0.06
2018-03-02T12:20:00.302Z,0.09
2018-03-02T12:21:00.293Z,0.09
2018-03-02T12:22:00.278Z,0.30
2018-03-02T12:23:00.261Z,0.28
2018-03-02T12:24:00.249Z,0.12
2018-03-02T12:25:00.261Z,0.41
2018-03-02T12:26:00.225Z,0.24
2018-03-02T12:27:00.223Z,0.23
2018-03-02T12:28:00.199Z,0.52
2018-03-02T12:29:00.194Z,0.48
2018-03-02T12:30:00.179Z,0.34
2018-03-02T12:31:00.171Z,0.16
2018-03-02T12:32:00.155Z,0.16
2018-03-02T12:33:00.138Z,0.16
2018-03-02T12:34:00.123Z,0.31
2018-03-02T12:35:00.114Z,0.45
2018-03-02T12:36:00.100Z,0.00
2018-03-02T12:37:00.084Z,0.10
2018-03-02T12:38:00.084Z,0.16
2018-03-02T12:39:00.080Z,0.16
2018-03-02T12:40:00.060Z,0.13
2018-03-02T12:41:00.041Z,0.36
2018-03-02T12:42:00.027Z,0.38
2018-03-02T12:43:00.014Z,0.39
2018-03-02T12:44:00.006Z,0.30
2018-03-02T12:44:59.996Z,0.53
2018-03-02T12:45:59.982Z,0.39
2018-03-02T12:46:59.964Z,0.43
2018-03-02T12:47:59.957Z,0.15
2018-03-02T12:48:59.942Z,0.02
2018-03-02T12:49:59.925Z,0.09
2018-03-02T12:50:59.916Z,0.05
2018-03-02T12:51:59.898Z,0.03
2018-03-02T12:52:59.887Z,0.27
2018-03-02T12:54:08.587Z,0.21
2018-03-02T12:55:53.304Z,0.60
2018-03-02T12:56:53.237Z,0.41
2018-03-02T12:57:53.221Z,0.39
2018-03-02T12:58:53.208Z,0.24
2018-03-02T12:59:53.245Z,0.34
2018-03-02T13:00:53.184Z,0.34
2018-03-02T13:01:53.174Z,0.16
2018-03-02T13:02:53.159Z,0.10
2018-03-02T13:03:53.147Z,0.21
2018-03-02T13:04:53.133Z,0.42
2018-03-02T13:05:53.173Z,0.52
2018-03-02T13:06:53.108Z,0.39
2018-03-02T13:07:53.095Z,0.24
2018-03-02T13:08:53.087Z,0.33
2018-03-02T13:09:53.075Z,0.41
2018-03-02T13:10:53.057Z,0.62
2018-03-02T13:11:53.047Z,0.52
2018-03-02T13:12:53.038Z,0.60
2018-03-02T13:13:53.050Z,0.62
2018-03-02T13:15:01.748Z,0.28
2018-03-02T13:16:45.945Z,0.43
2018-03-02T13:17:45.912Z,0.57
2018-03-02T13:19:39.345Z,0.53
2018-03-02T13:20:39.318Z,0.67